createdAt,value
2023-05-20T00:02:40.347Z,100908.50
2023-05-20T00:05:42.810Z,100901.47
2023-05-20T00:08:45.029Z,100895.66
2023-05-20T00:11:47.248Z,100899.56
2023-05-20T00:14:49.223Z,100911.63
2023-05-20T00:17:51.540Z,100909.31
2023-05-20T00:20:54.524Z,100905.56
2023-05-20T00:23:56.781Z,100893.91
2023-05-20T00:26:58.741Z,100888.09
2023-05-20T00:30:01.394Z,100888.81
2023-05-20T00:33:03.833Z,100888.94
2023-05-20T00:36:06.432Z,100884.97
2023-05-20T00:39:08.487Z,100881.28
2023-05-20T00:42:10.718Z,100882.84
2023-05-20T00:45:12.796Z,100889.75
2023-05-20T00:48:15.052Z,100892.25
2023-05-20T00:51:17.251Z,100891.50
2023-05-20T00:54:19.741Z,100890.38
2023-05-20T00:57:21.991Z,100883.81
2023-05-20T01:00:24.310Z,100883.09
2023-05-20T01:03:27.502Z,100881.41
2023-05-20T01:06:29.950Z,100886.16
2023-05-20T01:09:32.624Z,100883.34
2023-05-20T01:12:37.064Z,100880.22
2023-05-20T01:15:40.681Z,100894.81
2023-05-20T01:18:43.480Z,100895.09
2023-05-20T01:21:46.379Z,100902.38
2023-05-20T01:24:48.699Z,100904.72
2023-05-20T01:27:52.682Z,100903.03
2023-05-20T01:30:56.327Z,100901.19
2023-05-20T01:33:58.969Z,100899.75
2023-05-20T01:37:01.832Z,100906.16
2023-05-20T01:40:05.154Z,100910.19
2023-05-20T01:43:07.738Z,100917.09
2023-05-20T01:46:10.753Z,100911.03
2023-05-20T01:49:13.046Z,100919.38
2023-05-20T01:52:15.239Z,100920.72
2023-05-20T01:55:17.512Z,100910.91
2023-05-20T01:58:19.554Z,100924.13
2023-05-20T02:01:21.984Z,100929.31
2023-05-20T02:04:24.261Z,100920.09
2023-05-20T02:07:26.308Z,100920.78
2023-05-20T02:10:28.591Z,100917.84
2023-05-20T02:13:30.962Z,100922.09
2023-05-20T02:16:33.329Z,100923.72
2023-05-20T02:19:35.360Z,100916.38
2023-05-20T02:22:37.682Z,100914.53
2023-05-20T02:25:40.585Z,100920.53
2023-05-20T02:28:46.912Z,100914.75
2023-05-20T02:31:49.081Z,100920.38
2023-05-20T02:34:51.412Z,100917.81
2023-05-20T02:37:53.731Z,100918.06
2023-05-20T02:40:56.745Z,100919.38
2023-05-20T02:43:59.007Z,100923.03
2023-05-20T02:47:03.360Z,100928.13
2023-05-20T02:50:05.764Z,100925.13
2023-05-20T02:53:08.106Z,100925.25
2023-05-20T02:56:10.902Z,100923.69
2023-05-20T02:59:13.185Z,100914.72
2023-05-20T03:02:15.604Z,100914.47
2023-05-20T03:05:17.919Z,100915.91
2023-05-20T03:08:21.438Z,100922.16
2023-05-20T03:11:23.676Z,100920.72
2023-05-20T03:14:25.637Z,100926.06
2023-05-20T03:17:27.990Z,100920.84
2023-05-20T03:20:30.285Z,100924.63
2023-05-20T03:23:32.574Z,100927.28
2023-05-20T03:26:37.590Z,100933.09
2023-05-20T03:29:39.978Z,100935.78
2023-05-20T03:32:43.328Z,100942.06
2023-05-20T03:35:45.714Z,100939.28
2023-05-20T03:38:49.737Z,100946.69
2023-05-20T03:41:52.094Z,100938.69
2023-05-20T03:44:54.055Z,100945.47
2023-05-20T03:47:56.537Z,100951.06
2023-05-20T03:50:58.583Z,100942.06
2023-05-20T03:54:01.129Z,100944.16
2023-05-20T03:57:03.426Z,100950.31
2023-05-20T04:00:11.393Z,100948.84
2023-05-20T04:03:18.461Z,100960.50
2023-05-20T04:06:22.534Z,100963.22
2023-05-20T04:09:25.010Z,100962.97
2023-05-20T04:12:30.604Z,100969.69
2023-05-20T04:15:35.996Z,100963.06
2023-05-20T04:18:39.288Z,100975.19
2023-05-20T04:21:43.092Z,100972.44
2023-05-20T04:24:46.097Z,100969.37
2023-05-20T04:27:49.727Z,100974.91
2023-05-20T04:30:58.860Z,100978.22
2023-05-20T04:34:02.717Z,100977.13
2023-05-20T04:37:07.710Z,100971.06
2023-05-20T04:40:10.626Z,100969.34
2023-05-20T04:43:12.898Z,100978.53
2023-05-20T04:46:14.887Z,100975.47
2023-05-20T04:49:18.079Z,100987.47
2023-05-20T04:52:20.060Z,100986.28
2023-05-20T04:55:24.988Z,100990.38
2023-05-20T04:58:29.542Z,100996.06
2023-05-20T05:01:32.010Z,100985.09
2023-05-20T05:04:34.112Z,100979.94
2023-05-20T05:07:36.552Z,100974.34
2023-05-20T05:10:38.578Z,100969.84
2023-05-20T05:13:40.930Z,100975.78
2023-05-20T05:16:42.939Z,100970.03
2023-05-20T05:19:45.310Z,100970.88
2023-05-20T05:22:47.433Z,100976.94
2023-05-20T05:25:53.187Z,100975.25
2023-05-20T05:28:55.875Z,100982.66
2023-05-20T05:31:58.260Z,100976.78
2023-05-20T05:35:00.524Z,100979.97
2023-05-20T05:38:03.242Z,100972.75
2023-05-20T05:41:05.329Z,100976.28
2023-05-20T05:44:08.999Z,100978.88
2023-05-20T05:47:11.553Z,100983.94
2023-05-20T05:50:13.926Z,100987.28
2023-05-20T05:53:16.133Z,100988.34
2023-05-20T05:56:19.020Z,100990.47
2023-05-20T05:59:21.217Z,100988.94
2023-05-20T06:02:24.104Z,100990.81
2023-05-20T06:05:28.317Z,100994.16
2023-05-20T06:08:31.609Z,100992.19
2023-05-20T06:11:34.348Z,100981.28
2023-05-20T06:14:36.466Z,100992.53
2023-05-20T06:17:39.752Z,100991.50
2023-05-20T06:20:41.926Z,100993.84
2023-05-20T06:23:44.708Z,100988.94
2023-05-20T06:26:47.109Z,100985.16
2023-05-20T06:29:49.436Z,100991.53
2023-05-20T06:32:51.489Z,100983.25
2023-05-20T06:35:54.946Z,100978.72
2023-05-20T06:38:57.119Z,100975.47
2023-05-20T06:41:59.675Z,100984.06
2023-05-20T06:45:02.257Z,100985.97
2023-05-20T06:48:06.321Z,100980.09
2023-05-20T06:51:11.236Z,100983.72
2023-05-20T06:54:13.740Z,100985.91
2023-05-20T06:57:16.961Z,100979.78
2023-05-20T07:00:20.149Z,100982.50
2023-05-20T07:03:23.113Z,100975.56
2023-05-20T07:06:25.539Z,100977.66
2023-05-20T07:09:28.641Z,100974.59
2023-05-20T07:12:31.358Z,100972.06
2023-05-20T07:15:33.635Z,100969.91
2023-05-20T07:18:36.459Z,100970.59
2023-05-20T07:21:38.564Z,100961.06
2023-05-20T07:24:40.970Z,100956.34
2023-05-20T07:27:43.437Z,100950.72
2023-05-20T07:30:50.388Z,100951.44
2023-05-20T07:33:53.076Z,100953.00
2023-05-20T07:36:55.935Z,100948.63
2023-05-20T07:39:57.967Z,100949.69
2023-05-20T07:43:00.443Z,100951.19
2023-05-20T07:46:02.757Z,100946.28
2023-05-20T07:49:05.489Z,100956.19
2023-05-20T07:52:08.731Z,100949.31
2023-05-20T07:55:11.257Z,100947.41
2023-05-20T07:58:14.245Z,100950.16
2023-05-20T08:01:16.656Z,100952.16
2023-05-20T08:04:19.283Z,100951.75
2023-05-20T08:07:22.052Z,100949.31
2023-05-20T08:10:25.649Z,100944.09
2023-05-20T08:13:28.686Z,100944.22
2023-05-20T08:16:31.098Z,100938.25
2023-05-20T08:19:33.301Z,100961.25
2023-05-20T08:22:37.535Z,100941.63
2023-05-20T08:25:39.800Z,100943.00
2023-05-20T08:28:42.865Z,100928.06
2023-05-20T08:31:44.962Z,100934.31
2023-05-20T08:34:49.216Z,100929.94
2023-05-20T08:37:51.352Z,100920.09
2023-05-20T08:40:55.137Z,100923.12
2023-05-20T08:43:59.238Z,100918.91
2023-05-20T08:47:03.850Z,100924.22
2023-05-20T08:50:06.665Z,100921.06
2023-05-20T08:53:09.063Z,100907.47
2023-05-20T08:56:11.654Z,100909.75
2023-05-20T08:59:14.013Z,100905.25
2023-05-20T09:02:16.136Z,100903.03
2023-05-20T09:05:19.259Z,100904.78
2023-05-20T09:08:26.228Z,100904.44
2023-05-20T09:11:29.934Z,100894.84
2023-05-20T09:14:32.075Z,100899.25
2023-05-20T09:17:37.991Z,100899.44
2023-05-20T09:20:41.204Z,100901.00
2023-05-20T09:23:47.331Z,100892.69
2023-05-20T09:26:49.603Z,100887.66
2023-05-20T09:29:51.928Z,100881.19
2023-05-20T09:33:01.154Z,100886.81
2023-05-20T09:36:04.855Z,100895.69
2023-05-20T09:39:08.080Z,100880.19
2023-05-20T09:42:18.552Z,100875.88
2023-05-20T09:45:22.196Z,100873.69
2023-05-20T09:48:25.180Z,100863.38
2023-05-20T09:51:27.854Z,100856.69
2023-05-20T09:54:31.114Z,100847.63
2023-05-20T09:57:34.160Z,100848.44
2023-05-20T10:00:36.487Z,100846.47
2023-05-20T10:03:40.132Z,100833.72
2023-05-20T10:06:46.811Z,100833.94
2023-05-20T10:09:52.119Z,100832.72
2023-05-20T10:12:56.956Z,100837.47
2023-05-20T10:16:18.160Z,100822.22
2023-05-20T10:19:30.778Z,100827.37
2023-05-20T10:22:33.324Z,100830.41
2023-05-20T10:25:35.463Z,100827.37
2023-05-20T10:28:40.053Z,100824.88
2023-05-20T10:31:48.333Z,100818.12
2023-05-20T10:34:50.670Z,100815.47
2023-05-20T10:37:53.974Z,100812.03
2023-05-20T10:40:57.442Z,100802.13
2023-05-20T10:44:03.283Z,100795.47
2023-05-20T10:50:26.490Z,100791.12
2023-05-20T10:53:33.556Z,100789.97
2023-05-20T10:56:36.369Z,100781.31
2023-05-20T10:59:38.817Z,100783.28
2023-05-20T11:02:41.970Z,100782.09
2023-05-20T11:05:48.026Z,100781.38
2023-05-20T11:08:49.969Z,100780.84
2023-05-20T11:11:54.168Z,100778.84
2023-05-20T11:14:56.177Z,100776.41
2023-05-20T11:18:00.592Z,100777.78
2023-05-20T11:21:03.083Z,100768.91
2023-05-20T11:24:05.593Z,100753.62
2023-05-20T11:27:07.958Z,100765.91
2023-05-20T11:30:11.760Z,100759.31
2023-05-20T11:33:14.731Z,100759.81
2023-05-20T11:36:27.412Z,100763.41
2023-05-20T11:39:30.392Z,100752.94
2023-05-20T11:42:32.821Z,100762.75
2023-05-20T11:45:41.313Z,100755.94
2023-05-20T11:48:51.142Z,100748.91
2023-05-20T11:51:53.116Z,100748.91
2023-05-20T11:54:55.858Z,100738.63
2023-05-20T11:57:58.133Z,100744.47
2023-05-20T12:01:09.475Z,100743.06
2023-05-20T12:04:23.231Z,100746.00
2023-05-20T12:07:26.804Z,100739.50
2023-05-20T12:10:29.188Z,100740.19
2023-05-20T12:13:32.176Z,100729.78
2023-05-20T12:16:36.444Z,100724.41
2023-05-20T12:19:39.911Z,100731.53
2023-05-20T12:22:44.919Z,100732.37
2023-05-20T12:25:49.745Z,100744.97
2023-05-20T12:28:52.387Z,100728.06
2023-05-20T12:31:54.425Z,100734.12
2023-05-20T12:34:56.782Z,100724.06
2023-05-20T12:37:58.738Z,100721.06
2023-05-20T12:41:02.021Z,100731.06
2023-05-20T12:44:04.004Z,100728.41
2023-05-20T12:47:06.769Z,100720.41
2023-05-20T12:50:09.049Z,100723.44
2023-05-20T12:53:11.343Z,100720.44
2023-05-20T12:56:13.336Z,100712.88
2023-05-20T12:59:15.686Z,100708.25
2023-05-20T13:02:17.699Z,100713.50
2023-05-20T13:05:20.111Z,100694.87
2023-05-20T13:08:22.070Z,100697.06
2023-05-20T13:11:24.614Z,100689.47
2023-05-20T13:14:26.746Z,100688.63
2023-05-20T13:17:29.025Z,100698.50
2023-05-20T13:20:31.137Z,100689.09
2023-05-20T13:23:33.546Z,100687.97
2023-05-20T13:26:35.587Z,100674.41
2023-05-20T13:29:37.988Z,100672.25
2023-05-20T13:32:40.017Z,100675.91
2023-05-20T13:35:42.337Z,100676.59
2023-05-20T13:38:44.366Z,100662.00
2023-05-20T13:41:46.660Z,100660.97
2023-05-20T13:44:48.641Z,100661.53
2023-05-20T13:47:51.006Z,100663.78
2023-05-20T13:50:53.059Z,100661.31
2023-05-20T13:53:55.283Z,100661.81
2023-05-20T13:56:57.400Z,100651.75
2023-05-20T13:59:59.672Z,100655.53
2023-05-20T14:03:04.527Z,100647.81
2023-05-20T14:06:06.817Z,100648.44
2023-05-20T14:09:09.314Z,100652.81
2023-05-20T14:12:11.605Z,100645.91
2023-05-20T14:15:13.819Z,100652.81
2023-05-20T14:18:16.608Z,100650.94
2023-05-20T14:21:19.189Z,100646.59
2023-05-20T14:24:22.990Z,100634.69
2023-05-20T14:27:25.793Z,100634.00
2023-05-20T14:30:28.030Z,100637.78
2023-05-20T14:33:30.017Z,100634.00
2023-05-20T14:36:32.357Z,100625.03
2023-05-20T14:39:34.354Z,100629.63
2023-05-20T14:42:36.855Z,100621.25
2023-05-20T14:45:38.986Z,100621.91
2023-05-20T14:48:41.308Z,100615.03
2023-05-20T14:51:43.276Z,100618.81
2023-05-20T14:54:45.548Z,100615.66
2023-05-20T14:57:47.844Z,100616.69
2023-05-20T15:00:50.098Z,100626.53
2023-05-20T15:03:52.094Z,100620.88
2023-05-20T15:06:54.662Z,100623.59
2023-05-20T15:09:56.921Z,100622.78
2023-05-20T15:12:59.269Z,100604.34
2023-05-20T15:16:01.512Z,100615.66
2023-05-20T15:19:03.805Z,100607.09
2023-05-20T15:22:05.832Z,100602.06
2023-05-20T15:25:08.352Z,100595.81
2023-05-20T15:28:10.359Z,100593.50
2023-05-20T15:31:12.701Z,100586.59
2023-05-20T15:34:14.983Z,100591.22
2023-05-20T15:37:17.281Z,100587.22
2023-05-20T15:40:19.320Z,100591.78
2023-05-20T15:43:21.708Z,100585.75
2023-05-20T15:46:24.639Z,100576.78
2023-05-20T15:49:26.935Z,100581.72
2023-05-20T15:52:28.940Z,100571.69
2023-05-20T15:55:31.356Z,100577.06
2023-05-20T15:58:33.306Z,100567.62
2023-05-20T16:01:35.578Z,100567.28
2023-05-20T16:04:37.869Z,100575.47
2023-05-20T16:07:39.861Z,100575.03
2023-05-20T16:10:42.174Z,100576.28
2023-05-20T16:13:44.140Z,100581.25
2023-05-20T16:16:46.498Z,100577.59
2023-05-20T16:19:48.773Z,100576.13
2023-05-20T16:22:51.092Z,100569.88
2023-05-20T16:25:53.111Z,100575.31
2023-05-20T16:28:55.618Z,100567.59
2023-05-20T16:31:57.912Z,100574.66
2023-05-20T16:35:01.708Z,100567.31
2023-05-20T16:38:03.752Z,100571.06
2023-05-20T16:41:06.614Z,100567.50
2023-05-20T16:44:08.870Z,100576.06
2023-05-20T16:47:11.232Z,100578.09
2023-05-20T16:50:13.275Z,100578.22
2023-05-20T16:53:16.608Z,100571.09
2023-05-20T16:56:20.129Z,100574.00
2023-05-20T16:59:24.785Z,100579.19
2023-05-20T17:02:26.814Z,100577.91
2023-05-20T17:05:29.152Z,100578.69
2023-05-20T17:08:31.097Z,100582.25
2023-05-20T17:11:33.763Z,100586.16
2023-05-20T17:14:36.960Z,100578.63
2023-05-20T17:17:39.309Z,100583.34
2023-05-20T17:20:41.351Z,100582.91
2023-05-20T17:23:43.606Z,100594.97
2023-05-20T17:26:45.592Z,100597.41
2023-05-20T17:29:48.579Z,100589.59
2023-05-20T17:32:53.079Z,100594.91
2023-05-20T17:35:56.361Z,100594.47
2023-05-20T17:38:58.329Z,100596.47
2023-05-20T17:42:01.290Z,100587.44
2023-05-20T17:45:03.414Z,100590.56
2023-05-20T17:48:08.743Z,100587.28
2023-05-20T17:51:12.044Z,100591.34
2023-05-20T17:54:15.075Z,100587.19
2023-05-20T17:57:17.195Z,100590.72
2023-05-20T18:00:21.422Z,100596.44
2023-05-20T18:03:23.827Z,100580.16
2023-05-20T18:06:26.460Z,100582.28
2023-05-20T18:09:28.728Z,100585.13
2023-05-20T18:12:30.700Z,100582.22
2023-05-20T18:15:32.953Z,100578.97
2023-05-20T18:18:34.895Z,100588.19
2023-05-20T18:21:37.429Z,100587.16
2023-05-20T18:24:39.382Z,100590.97
2023-05-20T18:27:42.103Z,100578.97
2023-05-20T18:30:44.111Z,100586.66
2023-05-20T18:33:46.416Z,100591.50
2023-05-20T18:36:48.562Z,100597.75
2023-05-20T18:39:51.232Z,100594.72
2023-05-20T18:42:53.280Z,100595.28
2023-05-20T18:45:55.912Z,100590.84
2023-05-20T18:48:57.946Z,100604.69
2023-05-20T18:52:00.473Z,100601.66
2023-05-20T18:55:02.449Z,100602.75
2023-05-20T18:58:04.767Z,100595.56
2023-05-20T19:01:07.113Z,100594.53
2023-05-20T19:04:09.504Z,100596.06
2023-05-20T19:07:11.823Z,100601.12
2023-05-20T19:10:15.185Z,100613.41
2023-05-20T19:13:17.172Z,100612.12
2023-05-20T19:16:19.780Z,100610.72
2023-05-20T19:19:21.945Z,100607.84
2023-05-20T19:22:24.283Z,100620.19
2023-05-20T19:25:26.663Z,100619.91
2023-05-20T19:28:28.968Z,100624.75
2023-05-20T19:31:31.037Z,100628.62
2023-05-20T19:34:33.473Z,100622.25
2023-05-20T19:37:35.553Z,100619.25
2023-05-20T19:40:38.055Z,100622.28
2023-05-20T19:43:40.451Z,100619.63
2023-05-20T19:46:42.815Z,100624.19
2023-05-20T19:49:44.803Z,100626.38
2023-05-20T19:52:47.117Z,100627.91
2023-05-20T19:55:49.351Z,100630.78
2023-05-20T19:58:51.669Z,100624.56
2023-05-20T20:01:53.751Z,100617.16
2023-05-20T20:04:56.175Z,100623.41
2023-05-20T20:07:58.168Z,100620.37
2023-05-20T20:11:00.428Z,100625.94
2023-05-20T20:14:02.397Z,100620.56
2023-05-20T20:17:06.206Z,100629.81
2023-05-20T20:20:10.587Z,100627.78
2023-05-20T20:23:12.863Z,100630.97
2023-05-20T20:26:14.937Z,100635.53
2023-05-20T20:29:17.212Z,100624.75
2023-05-20T20:32:19.164Z,100619.38
2023-05-20T20:35:22.680Z,100615.34
2023-05-20T20:38:24.729Z,100618.72
2023-05-20T20:41:27.251Z,100613.28
2023-05-20T20:44:29.328Z,100621.03
2023-05-20T20:47:31.700Z,100615.63
2023-05-20T20:50:34.574Z,100623.03
2023-05-20T20:53:36.931Z,100609.59
2023-05-20T20:56:39.795Z,100609.75
2023-05-20T20:59:47.627Z,100605.19
2023-05-20T21:02:50.223Z,100601.34
2023-05-20T21:05:53.193Z,100607.88
2023-05-20T21:08:58.039Z,100598.81
2023-05-20T21:12:00.418Z,100614.06
2023-05-20T21:15:02.394Z,100605.69
2023-05-20T21:18:04.786Z,100609.38
2023-05-20T21:21:12.021Z,100614.94
2023-05-20T21:24:14.462Z,100608.38
2023-05-20T21:27:16.473Z,100613.37
2023-05-20T21:30:20.037Z,100616.25
2023-05-20T21:33:21.990Z,100607.34
2023-05-20T21:36:24.254Z,100602.50
2023-05-20T21:39:26.215Z,100608.03
2023-05-20T21:42:28.875Z,100605.53
2023-05-20T21:45:30.905Z,100603.81
2023-05-20T21:48:33.225Z,100604.47
2023-05-20T21:51:35.213Z,100596.94
2023-05-20T21:54:37.452Z,100595.41
2023-05-20T21:57:39.491Z,100593.37
2023-05-20T22:00:42.101Z,100592.19
2023-05-20T22:03:51.105Z,100599.91
2023-05-20T22:06:54.197Z,100594.72
2023-05-20T22:09:56.982Z,100606.13
2023-05-20T22:12:59.214Z,100608.72
2023-05-20T22:16:02.175Z,100605.16
2023-05-20T22:19:04.332Z,100595.59
2023-05-20T22:22:06.760Z,100609.28
2023-05-20T22:25:09.031Z,100601.25
2023-05-20T22:28:11.361Z,100600.84
2023-05-20T22:31:13.469Z,100608.03
2023-05-20T22:34:15.868Z,100610.91
2023-05-20T22:37:18.185Z,100619.44
2023-05-20T22:40:20.857Z,100617.78
2023-05-20T22:43:24.604Z,100613.56
2023-05-20T22:46:26.984Z,100613.50
2023-05-20T22:49:29.013Z,100616.81
2023-05-20T22:52:32.537Z,100619.97
2023-05-20T22:55:34.720Z,100617.91
2023-05-20T22:58:39.650Z,100628.50
2023-05-20T23:01:42.394Z,100634.38
2023-05-20T23:04:45.072Z,100635.84
2023-05-20T23:07:47.549Z,100638.25
2023-05-20T23:10:50.445Z,100639.03
2023-05-20T23:13:52.488Z,100628.22
2023-05-20T23:16:54.788Z,100634.44
2023-05-20T23:19:56.783Z,100633.13
2023-05-20T23:23:03.447Z,100631.59
2023-05-20T23:26:10.661Z,100629.91
2023-05-20T23:29:13.005Z,100626.75
2023-05-20T23:32:14.969Z,100619.81
2023-05-20T23:35:18.485Z,100619.00
2023-05-20T23:38:20.542Z,100619.63
2023-05-20T23:41:23.652Z,100627.75
2023-05-20T23:44:25.733Z,100618.78
2023-05-20T23:47:29.886Z,100615.78
2023-05-20T23:50:32.670Z,100611.84
2023-05-20T23:53:35.163Z,100616.87
2023-05-20T23:56:37.224Z,100613.78
2023-05-20T23:59:39.486Z,100609.59
